createdAt,value
2018-07-19T00:01:06.472Z,472.20
2018-07-19T00:03:08.866Z,486.58
2018-07-19T00:05:10.836Z,479.02
2018-07-19T00:07:12.828Z,501.93
2018-07-19T00:09:14.801Z,458.07
2018-07-19T00:11:16.779Z,460.63
2018-07-19T00:13:18.756Z,474.73
2018-07-19T00:15:20.713Z,449.23
2018-07-19T00:17:22.688Z,484.13
2018-07-19T00:19:24.661Z,471.68
2018-07-19T00:21:26.644Z,438.45
2018-07-19T00:23:28.599Z,458.90
2018-07-19T00:25:30.610Z,443.80
2018-07-19T00:27:32.588Z,435.85
2018-07-19T00:29:34.572Z,448.25
2018-07-19T00:31:36.549Z,437.57
2018-07-19T00:33:38.541Z,439.60
2018-07-19T00:35:40.500Z,440.47
2018-07-19T00:37:42.666Z,429.62
2018-07-19T00:39:44.650Z,451.67
2018-07-19T00:41:46.613Z,406.65
2018-07-19T00:43:49.206Z,437.02
2018-07-19T00:45:51.647Z,441.15
2018-07-19T00:47:53.602Z,434.98
2018-07-19T00:49:55.577Z,430.22
2018-07-19T00:51:57.558Z,443.80
2018-07-19T00:53:59.543Z,421.27
2018-07-19T00:56:01.511Z,426.80
2018-07-19T00:58:03.473Z,430.83
2018-07-19T01:00:05.466Z,412.32
2018-07-19T01:02:07.438Z,421.18
2018-07-19T01:04:09.421Z,430.27
2018-07-19T01:06:11.397Z,408.80
2018-07-19T01:08:13.367Z,403.48
2018-07-19T01:10:15.367Z,395.65
2018-07-19T01:12:18.115Z,396.18
2018-07-19T01:14:19.959Z,417.95
2018-07-19T01:16:21.937Z,401.45
2018-07-19T01:18:23.935Z,395.30
2018-07-19T01:20:25.881Z,392.90
2018-07-19T01:22:27.835Z,377.50
2018-07-19T01:24:29.839Z,384.55
2018-07-19T01:26:31.797Z,384.05
2018-07-19T01:28:33.765Z,383.73
2018-07-19T01:30:35.743Z,382.75
2018-07-19T01:32:37.711Z,385.55
2018-07-19T01:34:39.692Z,386.90
2018-07-19T01:36:41.948Z,364.00
2018-07-19T01:38:43.916Z,370.80
2018-07-19T01:40:46.018Z,374.10
2018-07-19T01:42:47.984Z,365.92
2018-07-19T01:44:50.371Z,358.20
2018-07-19T01:46:52.338Z,347.07
2018-07-19T01:48:54.306Z,379.50
2018-07-19T01:50:56.275Z,347.25
2018-07-19T01:52:58.248Z,363.25
2018-07-19T01:55:00.268Z,358.77
2018-07-19T01:57:02.223Z,347.85
2018-07-19T01:59:04.194Z,361.92
2018-07-19T02:01:06.165Z,368.63
2018-07-19T02:03:08.342Z,338.82
2018-07-19T02:05:10.654Z,353.27
2018-07-19T02:07:12.610Z,346.18
2018-07-19T02:09:14.786Z,342.10
2018-07-19T02:11:17.074Z,366.27
2018-07-19T02:13:19.041Z,349.50
2018-07-19T02:15:21.026Z,366.08
2018-07-19T02:17:23.030Z,352.77
2018-07-19T02:19:25.337Z,339.35
2018-07-19T02:21:27.319Z,339.48
2018-07-19T02:23:29.304Z,345.42
2018-07-19T02:25:31.276Z,361.70
2018-07-19T02:27:33.254Z,355.92
2018-07-19T02:29:35.505Z,343.00
2018-07-19T02:31:37.468Z,328.65
2018-07-19T02:33:39.444Z,344.32
2018-07-19T02:35:41.411Z,334.23
2018-07-19T02:37:43.400Z,321.93
2018-07-19T02:39:45.345Z,334.40
2018-07-19T02:41:47.694Z,316.57
2018-07-19T02:43:49.722Z,323.35
2018-07-19T02:45:51.635Z,338.50
2018-07-19T02:47:53.630Z,296.25
2018-07-19T02:49:55.999Z,328.40
2018-07-19T02:51:58.430Z,337.35
2018-07-19T02:54:00.492Z,321.48
2018-07-19T02:56:02.464Z,317.32
2018-07-19T02:58:04.434Z,304.43
2018-07-19T03:00:06.406Z,291.90
2018-07-19T03:02:08.417Z,295.73
2018-07-19T03:04:10.348Z,302.60
2018-07-19T03:06:12.387Z,304.93
2018-07-19T03:08:14.618Z,292.20
2018-07-19T03:10:16.600Z,295.35
2018-07-19T03:12:18.564Z,291.25
2018-07-19T03:14:20.676Z,295.12
2018-07-19T03:16:22.662Z,280.62
2018-07-19T03:18:24.628Z,286.95
2018-07-19T03:20:26.900Z,288.45
2018-07-19T03:22:28.877Z,273.35
2018-07-19T03:24:30.856Z,291.80
2018-07-19T03:26:32.828Z,286.90
2018-07-19T03:28:34.814Z,286.48
2018-07-19T03:30:36.774Z,285.05
2018-07-19T03:32:38.771Z,285.00
2018-07-19T03:34:40.737Z,276.30
2018-07-19T03:36:42.695Z,262.38
2018-07-19T03:38:44.682Z,273.23
2018-07-19T03:40:46.642Z,259.20
2018-07-19T03:42:48.623Z,272.17
2018-07-19T03:44:50.600Z,255.55
2018-07-19T03:46:52.568Z,264.27
2018-07-19T03:48:54.554Z,267.77
2018-07-19T03:50:56.528Z,272.17
2018-07-19T03:52:58.498Z,271.60
2018-07-19T03:55:00.475Z,254.97
2018-07-19T03:57:02.440Z,253.88
2018-07-19T03:59:04.420Z,245.90
2018-07-19T04:01:06.387Z,254.45
2018-07-19T04:03:08.388Z,249.82
2018-07-19T04:05:10.354Z,245.93
2018-07-19T04:07:12.340Z,262.45
2018-07-19T04:09:14.327Z,248.03
2018-07-19T04:11:16.298Z,236.35
2018-07-19T04:13:18.275Z,247.37
2018-07-19T04:15:20.247Z,236.43
2018-07-19T04:17:22.217Z,231.43
2018-07-19T04:19:24.187Z,241.20
2018-07-19T04:21:26.163Z,229.15
2018-07-19T04:23:28.139Z,238.05
2018-07-19T04:25:30.110Z,241.90
2018-07-19T04:27:32.097Z,246.45
2018-07-19T04:29:34.077Z,244.75
2018-07-19T04:31:36.061Z,222.27
2018-07-19T04:33:38.060Z,212.95
2018-07-19T04:35:40.025Z,227.00
2018-07-19T04:37:42.016Z,230.10
2018-07-19T04:39:43.990Z,224.75
2018-07-19T04:41:45.981Z,206.85
2018-07-19T04:43:47.950Z,211.25
2018-07-19T04:45:49.929Z,217.40
2018-07-19T04:47:51.915Z,219.37
2018-07-19T04:49:54.241Z,207.72
2018-07-19T04:51:56.211Z,223.00
2018-07-19T04:53:58.194Z,216.45
2018-07-19T04:56:00.171Z,205.15
2018-07-19T04:58:02.132Z,214.20
2018-07-19T05:00:04.119Z,208.02
2018-07-19T05:02:06.104Z,219.22
2018-07-19T05:04:08.077Z,208.78
2018-07-19T05:06:10.040Z,205.90
2018-07-19T05:08:12.024Z,210.82
2018-07-19T05:10:13.988Z,219.43
2018-07-19T05:12:15.955Z,202.40
2018-07-19T05:14:17.950Z,212.45
2018-07-19T05:16:19.928Z,371.90
2018-07-19T05:18:21.912Z,63.17
2018-07-19T05:20:23.874Z,30.60
2018-07-19T05:22:25.848Z,13.10
2018-07-19T05:24:27.812Z,9.28
2018-07-19T05:26:29.768Z,7.90
2018-07-19T05:28:31.733Z,5.80
2018-07-19T05:30:33.698Z,14.55
2018-07-19T05:32:35.941Z,352.68
2018-07-19T05:34:37.950Z,113.85
2018-07-19T05:36:39.912Z,34.10
2018-07-19T05:38:41.894Z,12.78
2018-07-19T05:40:43.850Z,7.25
2018-07-19T05:42:45.822Z,4.75
2018-07-19T05:44:47.813Z,106.60
2018-07-19T05:46:49.792Z,66.33
2018-07-19T05:48:51.764Z,40.65
2018-07-19T05:50:53.738Z,17.32
2018-07-19T05:52:55.726Z,14.50
2018-07-19T05:54:57.692Z,86.40
2018-07-19T05:57:00.404Z,38.83
2018-07-19T05:59:02.250Z,20.17
2018-07-19T06:01:04.214Z,8.63
2018-07-19T06:03:06.192Z,5.22
2018-07-19T06:05:08.151Z,6.00
2018-07-19T06:07:10.100Z,5.05
2018-07-19T06:09:12.077Z,21.65
2018-07-19T06:11:14.040Z,28.62
2018-07-19T06:13:16.022Z,20.57
2018-07-19T06:15:17.999Z,14.63
2018-07-19T06:17:19.965Z,9.00
2018-07-19T06:19:21.930Z,7.15
2018-07-19T06:21:23.892Z,4.00
2018-07-19T06:23:25.877Z,4.85
2018-07-19T06:25:27.838Z,60.98
2018-07-19T06:27:30.180Z,35.03
2018-07-19T06:29:32.042Z,42.90
2018-07-19T06:31:34.390Z,21.70
2018-07-19T06:33:36.323Z,14.00
2018-07-19T06:35:38.536Z,7.08
2018-07-19T06:37:40.497Z,5.62
2018-07-19T06:39:42.579Z,6.72
2018-07-19T06:41:44.538Z,5.87
2018-07-19T06:43:46.512Z,8.15
2018-07-19T06:45:48.477Z,52.80
2018-07-19T06:47:50.436Z,28.90
2018-07-19T06:49:52.430Z,10.45
2018-07-19T06:51:54.383Z,6.30
2018-07-19T06:53:56.341Z,3.58
2018-07-19T06:55:58.309Z,3.47
2018-07-19T06:58:00.277Z,13.00
2018-07-19T07:00:02.263Z,39.27
2018-07-19T07:02:04.232Z,20.37
2018-07-19T07:04:06.196Z,10.80
2018-07-19T07:06:08.157Z,6.65
2018-07-19T07:08:10.132Z,9.20
2018-07-19T07:10:12.084Z,8.20
2018-07-19T07:12:14.044Z,37.17
2018-07-19T07:14:16.024Z,18.62
2018-07-19T07:16:17.990Z,9.13
2018-07-19T07:18:19.952Z,5.40
2018-07-19T07:20:21.924Z,4.35
2018-07-19T07:22:23.900Z,33.23
2018-07-19T07:24:25.866Z,50.43
2018-07-19T07:26:27.844Z,45.50
2018-07-19T07:28:29.807Z,23.92
2018-07-19T07:30:31.778Z,31.85
2018-07-19T07:32:33.732Z,21.30
2018-07-19T07:34:35.705Z,20.70
2018-07-19T07:36:37.657Z,10.15
2018-07-19T07:38:39.628Z,6.80
2018-07-19T07:40:41.588Z,7.42
2018-07-19T07:42:43.559Z,4.45
2018-07-19T07:44:45.518Z,3.92
2018-07-19T07:46:47.878Z,7.40
2018-07-19T07:48:49.850Z,4.95
2018-07-19T07:50:51.797Z,6.17
2018-07-19T07:52:53.758Z,3.37
2018-07-19T07:54:56.131Z,3.67
2018-07-19T07:56:58.299Z,4.25
2018-07-19T07:59:00.279Z,3.80
2018-07-19T08:01:02.289Z,3.25
2018-07-19T08:03:04.233Z,2.40
2018-07-19T08:05:06.210Z,2.20
2018-07-19T08:07:08.137Z,1.95
2018-07-19T08:09:10.394Z,16.48
2018-07-19T08:11:12.443Z,13.83
2018-07-19T08:13:14.406Z,12.60
2018-07-19T08:15:16.373Z,20.25
2018-07-19T08:17:18.321Z,40.92
2018-07-19T08:19:20.292Z,44.20
2018-07-19T08:21:22.293Z,42.05
2018-07-19T08:23:24.241Z,39.90
2018-07-19T08:25:26.210Z,37.48
2018-07-19T08:27:28.167Z,35.70
2018-07-19T08:29:30.131Z,31.68
2018-07-19T08:31:32.093Z,25.52
2018-07-19T08:33:34.088Z,22.62
2018-07-19T08:35:36.360Z,12.60
2018-07-19T08:37:38.320Z,101.90
2018-07-19T08:39:40.292Z,74.07
2018-07-19T08:41:42.273Z,63.02
2018-07-19T08:43:44.252Z,35.03
2018-07-19T08:45:46.217Z,30.97
2018-07-19T08:47:48.187Z,34.03
2018-07-19T08:49:50.155Z,30.72
2018-07-19T08:51:52.116Z,32.45
2018-07-19T08:53:54.088Z,16.93
2018-07-19T08:55:56.053Z,10.28
2018-07-19T08:57:58.008Z,8.15
2018-07-19T08:59:59.999Z,30.05
2018-07-19T09:02:02.275Z,32.25
2018-07-19T09:04:04.667Z,22.32
2018-07-19T09:06:06.502Z,23.40
2018-07-19T09:08:08.457Z,16.57
2018-07-19T09:10:10.462Z,19.17
2018-07-19T09:12:12.432Z,19.27
2018-07-19T09:14:14.812Z,16.87
2018-07-19T09:16:16.777Z,22.60
2018-07-19T09:18:18.760Z,39.33
2018-07-19T09:20:21.023Z,39.80
2018-07-19T09:22:22.996Z,159.20
2018-07-19T09:24:24.973Z,118.42
2018-07-19T09:26:26.955Z,167.72
2018-07-19T09:28:28.939Z,97.78
2018-07-19T09:30:30.919Z,135.32
2018-07-19T09:32:32.928Z,210.82
2018-07-19T09:34:34.894Z,116.85
2018-07-19T09:36:36.871Z,129.63
2018-07-19T09:38:38.859Z,75.85
2018-07-19T09:40:40.804Z,85.70
2018-07-19T09:42:42.788Z,136.45
2018-07-19T09:44:44.758Z,113.05
2018-07-19T09:46:46.744Z,120.75
2018-07-19T09:48:49.583Z,153.02
2018-07-19T09:50:51.413Z,142.43
2018-07-19T09:52:53.394Z,117.10
2018-07-19T09:54:55.373Z,141.88
2018-07-19T09:56:57.359Z,168.00
2018-07-19T09:58:59.320Z,195.95
2018-07-19T10:01:01.307Z,176.12
2018-07-19T10:03:03.324Z,999.90
2018-07-19T10:05:05.270Z,312.50
2018-07-19T10:07:07.257Z,182.88
2018-07-19T10:09:09.212Z,176.75
2018-07-19T10:11:11.184Z,673.35
2018-07-19T10:13:13.162Z,487.90
2018-07-19T10:15:15.121Z,280.25
2018-07-19T10:17:17.142Z,257.87
2018-07-19T10:19:19.102Z,174.12
2018-07-19T10:21:21.064Z,164.77
2018-07-19T10:23:23.056Z,196.93
2018-07-19T10:25:25.025Z,205.45
2018-07-19T10:27:27.016Z,139.95
2018-07-19T10:29:28.982Z,106.10
2018-07-19T10:31:30.955Z,371.87
2018-07-19T10:33:32.933Z,218.37
2018-07-19T10:35:34.914Z,204.63
2018-07-19T10:37:37.408Z,164.93
2018-07-19T10:39:39.328Z,148.40
2018-07-19T10:41:41.521Z,170.10
2018-07-19T10:43:43.476Z,164.30
2018-07-19T10:45:45.480Z,145.97
2018-07-19T10:47:47.934Z,129.90
2018-07-19T10:49:49.930Z,131.07
2018-07-19T10:51:51.943Z,118.75
2018-07-19T10:53:53.864Z,106.80
2018-07-19T10:55:55.867Z,104.65
2018-07-19T10:57:57.846Z,111.97
2018-07-19T10:59:59.827Z,111.70
2018-07-19T11:02:01.825Z,179.47
2018-07-19T11:04:03.815Z,185.73
2018-07-19T11:06:05.767Z,175.90
2018-07-19T11:08:07.728Z,158.12
2018-07-19T11:10:09.758Z,181.97
2018-07-19T11:12:11.691Z,137.22
2018-07-19T11:14:13.702Z,142.30
2018-07-19T11:16:15.674Z,129.38
2018-07-19T11:18:17.662Z,116.15
2018-07-19T11:20:19.628Z,115.37
2018-07-19T11:22:22.500Z,659.25
2018-07-19T11:24:24.480Z,363.50
2018-07-19T11:26:26.472Z,214.72
2018-07-19T11:28:28.491Z,177.07
2018-07-19T11:30:30.444Z,175.25
2018-07-19T11:32:32.433Z,169.50
2018-07-19T11:34:34.397Z,78.90
2018-07-19T11:36:36.370Z,100.80
2018-07-19T11:38:38.354Z,103.75
2018-07-19T11:40:40.332Z,92.40
2018-07-19T11:42:42.294Z,100.70
2018-07-19T11:44:44.270Z,70.97
2018-07-19T11:46:46.250Z,74.37
2018-07-19T11:48:48.224Z,654.12
2018-07-19T11:50:50.228Z,295.00
2018-07-19T11:52:52.199Z,124.10
2018-07-19T11:54:54.170Z,97.62
2018-07-19T11:56:56.163Z,99.47
2018-07-19T11:58:58.125Z,92.08
2018-07-19T12:01:00.094Z,106.35
2018-07-19T12:03:02.078Z,149.50
2018-07-19T12:05:04.046Z,999.90
2018-07-19T12:07:06.028Z,302.90
2018-07-19T12:09:08.004Z,167.22
2018-07-19T12:11:09.990Z,112.10
2018-07-19T12:13:11.960Z,137.72
2018-07-19T12:15:13.949Z,96.90
2018-07-19T12:17:15.918Z,83.12
2018-07-19T12:19:17.904Z,88.03
2018-07-19T12:21:19.877Z,100.90
2018-07-19T12:23:21.856Z,327.07
2018-07-19T12:25:23.838Z,246.70
2018-07-19T12:27:25.819Z,139.50
2018-07-19T12:29:27.795Z,138.15
2018-07-19T12:31:29.767Z,110.63
2018-07-19T12:33:31.741Z,100.33
2018-07-19T12:35:33.731Z,92.27
2018-07-19T12:37:35.685Z,99.62
2018-07-19T12:39:37.693Z,88.70
2018-07-19T12:41:39.661Z,88.00
2018-07-19T12:43:41.632Z,115.32
2018-07-19T12:45:43.615Z,168.17
2018-07-19T12:47:45.588Z,215.62
2018-07-19T12:49:47.568Z,237.82
2018-07-19T12:51:49.554Z,212.12
2018-07-19T12:53:51.521Z,202.95
2018-07-19T12:55:53.501Z,179.45
2018-07-19T12:57:55.464Z,189.67
2018-07-19T12:59:57.469Z,197.80
2018-07-19T13:01:59.443Z,176.02
2018-07-19T13:04:01.427Z,181.07
2018-07-19T13:06:03.411Z,183.47
2018-07-19T13:08:05.370Z,184.93
2018-07-19T13:10:07.759Z,186.97
2018-07-19T13:12:09.663Z,201.37
2018-07-19T13:14:11.610Z,211.00
2018-07-19T13:16:13.589Z,205.57
2018-07-19T13:18:15.557Z,214.38
2018-07-19T13:20:17.509Z,207.90
2018-07-19T13:22:19.517Z,193.47
2018-07-19T13:24:21.514Z,195.43
2018-07-19T13:26:23.533Z,201.35
2018-07-19T13:28:25.492Z,210.13
2018-07-19T13:30:27.873Z,245.55
2018-07-19T13:32:29.752Z,243.90
2018-07-19T13:34:31.733Z,234.72
2018-07-19T13:36:33.780Z,277.82
2018-07-19T13:38:35.873Z,276.12
2018-07-19T13:40:37.896Z,291.12
2018-07-19T13:42:39.924Z,292.95
2018-07-19T13:44:41.847Z,300.38
2018-07-19T13:46:43.812Z,294.20
2018-07-19T13:48:45.790Z,316.52
2018-07-19T13:50:47.774Z,332.40
2018-07-19T13:52:49.769Z,297.15
2018-07-19T13:54:51.729Z,285.50
2018-07-19T13:56:53.694Z,271.25
2018-07-19T13:58:55.691Z,271.73
2018-07-19T14:00:57.668Z,234.85
2018-07-19T14:02:59.663Z,221.70
2018-07-19T14:05:01.631Z,205.05
2018-07-19T14:07:03.619Z,192.70
2018-07-19T14:09:05.586Z,169.30
2018-07-19T14:11:07.562Z,156.22
2018-07-19T14:13:09.568Z,159.03
2018-07-19T14:15:11.551Z,140.05
2018-07-19T14:17:13.524Z,129.80
2018-07-19T14:19:15.530Z,122.37
2018-07-19T14:21:17.505Z,107.35
2018-07-19T14:23:19.517Z,126.40
2018-07-19T14:25:21.531Z,122.85
2018-07-19T14:27:23.523Z,121.07
2018-07-19T14:29:25.518Z,126.53
2018-07-19T14:31:27.461Z,147.87
2018-07-19T14:33:29.436Z,151.65
2018-07-19T14:35:31.411Z,154.45
2018-07-19T14:37:33.382Z,155.00
2018-07-19T14:39:35.367Z,125.25
2018-07-19T14:41:37.340Z,71.33
2018-07-19T14:43:39.749Z,69.95
2018-07-19T14:45:41.749Z,91.55
2018-07-19T14:47:43.744Z,85.50
2018-07-19T14:49:45.709Z,88.35
2018-07-19T14:51:47.692Z,89.47
2018-07-19T14:53:49.674Z,80.45
2018-07-19T14:55:51.635Z,88.52
2018-07-19T14:57:53.644Z,88.65
2018-07-19T14:59:55.609Z,108.20
2018-07-19T15:01:57.600Z,117.13
2018-07-19T15:03:59.571Z,99.65
2018-07-19T15:06:01.580Z,120.02
2018-07-19T15:08:03.572Z,103.17
2018-07-19T15:10:05.549Z,84.52
2018-07-19T15:12:07.518Z,94.17
2018-07-19T15:14:09.493Z,86.12
2018-07-19T15:16:11.470Z,63.35
2018-07-19T15:18:13.434Z,81.53
2018-07-19T15:20:15.413Z,66.47
2018-07-19T15:22:17.360Z,92.88
2018-07-19T15:24:19.372Z,307.48
2018-07-19T15:26:21.355Z,175.75
2018-07-19T15:28:23.338Z,173.43
2018-07-19T15:30:25.345Z,49.40
2018-07-19T15:32:27.310Z,47.38
2018-07-19T15:34:29.348Z,74.92
2018-07-19T15:36:31.273Z,93.20
2018-07-19T15:38:33.289Z,124.38
2018-07-19T15:40:35.241Z,98.92
2018-07-19T15:42:37.215Z,112.42
2018-07-19T15:44:39.218Z,94.72
2018-07-19T15:46:41.161Z,108.12
2018-07-19T15:48:43.171Z,129.80
2018-07-19T15:50:45.151Z,182.90
2018-07-19T15:52:47.116Z,194.57
2018-07-19T15:54:49.096Z,162.45
2018-07-19T15:56:51.078Z,161.68
2018-07-19T15:58:53.068Z,119.60
2018-07-19T16:00:55.068Z,83.15
2018-07-19T16:02:57.041Z,93.75
2018-07-19T16:04:59.016Z,166.30
2018-07-19T16:07:00.974Z,136.35
2018-07-19T16:09:02.956Z,110.03
2018-07-19T16:11:04.955Z,94.47
2018-07-19T16:13:06.901Z,46.13
2018-07-19T16:15:08.894Z,31.80
2018-07-19T16:17:10.854Z,22.27
2018-07-19T16:19:12.847Z,18.30
2018-07-19T16:21:15.054Z,17.10
2018-07-19T16:23:17.008Z,15.03
2018-07-19T16:25:19.028Z,11.97
2018-07-19T16:27:20.984Z,10.32
2018-07-19T16:29:22.994Z,9.95
2018-07-19T16:31:24.949Z,9.58
2018-07-19T16:33:26.923Z,9.70
2018-07-19T16:35:28.886Z,10.05
2018-07-19T16:37:30.844Z,8.70
2018-07-19T16:39:32.803Z,7.95
2018-07-19T16:41:35.199Z,8.80
2018-07-19T16:43:37.133Z,7.85
2018-07-19T16:45:39.091Z,8.93
2018-07-19T16:47:41.066Z,8.73
2018-07-19T16:49:43.032Z,12.58
2018-07-19T16:51:45.006Z,83.55
2018-07-19T16:53:46.964Z,65.15
2018-07-19T16:55:48.950Z,135.60
2018-07-19T16:57:50.927Z,118.05
2018-07-19T16:59:52.906Z,86.97
2018-07-19T17:01:54.892Z,76.15
2018-07-19T17:03:56.859Z,72.05
2018-07-19T17:05:58.830Z,64.85
2018-07-19T17:08:00.811Z,59.10
2018-07-19T17:10:02.768Z,46.20
2018-07-19T17:12:04.758Z,40.25
2018-07-19T17:14:06.729Z,30.77
2018-07-19T17:16:08.702Z,29.35
2018-07-19T17:18:10.671Z,23.35
2018-07-19T17:20:12.638Z,30.30
2018-07-19T17:22:14.655Z,42.17
2018-07-19T17:24:16.626Z,65.50
2018-07-19T17:26:18.587Z,99.58
2018-07-19T17:28:20.581Z,30.60
2018-07-19T17:30:22.549Z,72.35
2018-07-19T17:32:24.532Z,51.70
2018-07-19T17:34:26.540Z,39.55
2018-07-19T17:36:28.485Z,422.77
2018-07-19T17:38:30.468Z,38.42
2018-07-19T17:40:32.445Z,52.53
2018-07-19T17:42:34.414Z,28.00
2018-07-19T17:44:36.379Z,16.97
2018-07-19T17:46:38.365Z,25.50
2018-07-19T17:48:40.329Z,16.52
2018-07-19T17:50:42.326Z,38.33
2018-07-19T17:52:44.282Z,14.85
2018-07-19T17:54:46.246Z,14.15
2018-07-19T17:56:48.203Z,16.15
2018-07-19T17:58:50.186Z,25.30
2018-07-19T18:00:52.155Z,13.58
2018-07-19T18:02:54.133Z,25.37
2018-07-19T18:04:56.107Z,26.45
2018-07-19T18:06:58.089Z,51.30
2018-07-19T18:09:00.053Z,121.60
2018-07-19T18:11:02.098Z,168.35
2018-07-19T18:13:04.032Z,177.15
2018-07-19T18:15:06.009Z,173.05
2018-07-19T18:17:07.994Z,161.52
2018-07-19T18:19:09.965Z,145.65
2018-07-19T18:21:11.941Z,178.47
2018-07-19T18:23:14.520Z,177.57
2018-07-19T18:25:16.493Z,179.03
2018-07-19T18:27:18.469Z,177.87
2018-07-19T18:29:20.434Z,184.28
2018-07-19T18:31:22.438Z,193.35
2018-07-19T18:33:24.543Z,224.27
2018-07-19T18:35:26.512Z,239.53
2018-07-19T18:37:28.501Z,284.35
2018-07-19T18:39:30.472Z,315.30
2018-07-19T18:41:32.439Z,311.37
2018-07-19T18:43:34.429Z,315.37
2018-07-19T18:45:36.792Z,302.45
2018-07-19T18:47:38.717Z,316.57
2018-07-19T18:49:41.117Z,350.38
2018-07-19T18:51:42.960Z,386.25
2018-07-19T18:53:44.936Z,429.40
2018-07-19T18:55:46.962Z,506.30
2018-07-19T18:57:49.289Z,449.10
2018-07-19T18:59:51.142Z,493.45
2018-07-19T19:01:53.134Z,426.65
2018-07-19T19:03:55.116Z,432.38
2018-07-19T19:05:57.100Z,460.32
2018-07-19T19:07:59.085Z,513.20
2018-07-19T19:10:01.076Z,420.52
2018-07-19T19:12:03.064Z,509.52
2018-07-19T19:14:05.036Z,512.05
2018-07-19T19:16:07.035Z,527.95
2018-07-19T19:18:09.018Z,426.18
2018-07-19T19:20:10.978Z,427.78
2018-07-19T19:22:12.960Z,466.80
2018-07-19T19:24:14.935Z,523.88
2018-07-19T19:26:16.944Z,562.35
2018-07-19T19:28:18.963Z,568.42
2018-07-19T19:30:20.887Z,559.10
2018-07-19T19:32:22.872Z,568.70
2018-07-19T19:34:24.855Z,561.08
2018-07-19T19:36:26.869Z,571.55
2018-07-19T19:38:28.825Z,599.30
2018-07-19T19:40:30.815Z,620.15
2018-07-19T19:42:32.782Z,624.38
2018-07-19T19:44:34.771Z,604.48
2018-07-19T19:46:36.735Z,589.75
2018-07-19T19:48:38.731Z,576.17
2018-07-19T19:50:40.723Z,585.78
2018-07-19T19:52:42.703Z,567.15
2018-07-19T19:54:44.697Z,576.67
2018-07-19T19:56:46.674Z,737.45
2018-07-19T19:58:48.648Z,583.55
2018-07-19T20:00:51.073Z,598.50
2018-07-19T20:02:52.938Z,645.23
2018-07-19T20:04:54.932Z,658.83
2018-07-19T20:06:56.942Z,641.90
2018-07-19T20:08:58.913Z,651.92
2018-07-19T20:11:00.905Z,652.80
2018-07-19T20:13:02.864Z,640.73
2018-07-19T20:15:04.832Z,642.33
2018-07-19T20:17:06.858Z,654.80
2018-07-19T20:19:08.814Z,641.75
2018-07-19T20:21:10.816Z,641.17
2018-07-19T20:23:12.791Z,637.75
2018-07-19T20:25:14.768Z,662.33
2018-07-19T20:27:16.759Z,677.25
2018-07-19T20:29:18.738Z,707.60
2018-07-19T20:31:20.733Z,706.67
2018-07-19T20:33:22.697Z,700.08
2018-07-19T20:35:24.671Z,682.45
2018-07-19T20:37:26.668Z,699.20
2018-07-19T20:39:28.641Z,684.17
2018-07-19T20:41:30.651Z,701.58
2018-07-19T20:43:32.604Z,686.50
2018-07-19T20:45:34.563Z,665.77
2018-07-19T20:47:36.559Z,796.92
2018-07-19T20:49:38.615Z,685.05
2018-07-19T20:51:40.582Z,705.90
2018-07-19T20:53:42.549Z,713.40
2018-07-19T20:55:44.541Z,732.58
2018-07-19T20:57:46.537Z,741.12
2018-07-19T20:59:48.503Z,764.17
2018-07-19T21:01:50.476Z,743.02
2018-07-19T21:03:52.451Z,727.35
2018-07-19T21:05:54.429Z,766.30
2018-07-19T21:07:56.410Z,728.85
2018-07-19T21:09:58.449Z,843.10
2018-07-19T21:12:00.411Z,735.23
2018-07-19T21:14:02.405Z,740.17
2018-07-19T21:16:04.368Z,790.65
2018-07-19T21:18:06.355Z,782.00
2018-07-19T21:20:08.314Z,787.52
2018-07-19T21:22:10.321Z,771.33
2018-07-19T21:24:12.319Z,783.98
2018-07-19T21:26:14.334Z,799.00
2018-07-19T21:28:16.248Z,727.25
2018-07-19T21:30:18.242Z,727.90
2018-07-19T21:32:20.226Z,761.42
2018-07-19T21:34:22.214Z,762.50
2018-07-19T21:36:24.197Z,766.88
2018-07-19T21:38:26.166Z,757.83
2018-07-19T21:40:28.158Z,762.10
2018-07-19T21:42:30.137Z,753.80
2018-07-19T21:44:32.129Z,740.60
2018-07-19T21:46:34.120Z,728.10
2018-07-19T21:48:36.079Z,742.98
2018-07-19T21:50:38.079Z,735.45
2018-07-19T21:52:40.059Z,745.92
2018-07-19T21:54:42.034Z,743.87
2018-07-19T21:56:44.016Z,766.75
2018-07-19T21:58:45.969Z,738.72
2018-07-19T22:00:47.955Z,736.50
2018-07-19T22:02:49.921Z,734.95
2018-07-19T22:04:51.906Z,740.52
2018-07-19T22:06:53.875Z,729.40
2018-07-19T22:08:55.856Z,730.03
2018-07-19T22:10:57.832Z,726.30
2018-07-19T22:12:59.820Z,729.33
2018-07-19T22:15:01.796Z,730.03
2018-07-19T22:17:03.816Z,722.60
2018-07-19T22:19:05.737Z,727.28
2018-07-19T22:21:07.734Z,726.15
2018-07-19T22:23:09.718Z,726.55
2018-07-19T22:25:11.692Z,706.92
2018-07-19T22:27:13.662Z,718.87
2018-07-19T22:29:15.632Z,720.15
2018-07-19T22:31:17.610Z,729.70
2018-07-19T22:33:19.597Z,697.80
2018-07-19T22:35:21.579Z,720.20
2018-07-19T22:37:23.552Z,700.95
2018-07-19T22:39:25.542Z,705.00
2018-07-19T22:41:27.518Z,708.58
2018-07-19T22:43:29.518Z,684.25
2018-07-19T22:45:31.637Z,710.23
2018-07-19T22:47:33.602Z,705.13
2018-07-19T22:49:35.589Z,702.90
2018-07-19T22:51:37.564Z,701.10
2018-07-19T22:53:39.560Z,677.85
2018-07-19T22:55:41.526Z,697.27
2018-07-19T22:57:43.477Z,695.73
2018-07-19T22:59:45.464Z,681.70
2018-07-19T23:01:47.441Z,693.00
2018-07-19T23:03:49.441Z,684.48
2018-07-19T23:05:51.417Z,689.17
2018-07-19T23:07:53.383Z,685.55
2018-07-19T23:09:55.352Z,680.63
2018-07-19T23:11:57.320Z,668.23
2018-07-19T23:13:59.291Z,686.88
2018-07-19T23:16:01.266Z,669.33
2018-07-19T23:18:03.236Z,656.75
2018-07-19T23:20:05.199Z,651.48
2018-07-19T23:22:07.179Z,671.63
2018-07-19T23:24:09.150Z,657.05
2018-07-19T23:26:11.146Z,656.42
2018-07-19T23:28:13.169Z,653.05
2018-07-19T23:30:15.131Z,655.87
2018-07-19T23:32:17.102Z,656.60
2018-07-19T23:34:19.057Z,640.47
2018-07-19T23:36:21.036Z,635.70
2018-07-19T23:38:23.021Z,638.80
2018-07-19T23:40:25.231Z,628.67
2018-07-19T23:42:27.212Z,631.60
2018-07-19T23:44:29.188Z,625.30
2018-07-19T23:46:31.161Z,621.10
2018-07-19T23:48:33.117Z,629.30
2018-07-19T23:50:35.088Z,637.42
2018-07-19T23:52:37.085Z,622.67
2018-07-19T23:54:39.044Z,614.83
2018-07-19T23:56:41.029Z,608.10
2018-07-19T23:58:43.002Z,616.35
